X  Close Metar Aviation Weather Data     KNPA Naval Air Station Pensacola Forrest Sherman Field
Temperature
79°F Temperature
73°F Dewpoint
84% Humidity



Wind
6 MPH
10 KM/H
3 M/S
5 KTS



Calm
N
Current Conditions

Mostly Scattered Clouds Mostly Scattered Clouds
Pressure 1015.62 (hPa) - 29.99 (inHg)
Visibility 10 (mile) - 16.1 (km)
Airport
Airport-code KNPA

Location: Naval Air Station Pensacola Forrest Sherman Field
Distance: 14 (mi)

Metar:
KNPA 241226Z VRB05KT 10SM SCT020 SCT030 BKN250 26/23 A2999 RMK AO2 T02560228

Time: 24-05-2022 07:26 CDT